sensor_id;sensor_type;location;lat;lon;timestamp;temperature;humidity
16823;DHT22;8528;49.976;11.858;2023-07-13T00:01:53;18.40;99.90
16823;DHT22;8528;49.976;11.858;2023-07-13T00:04:22;18.40;99.90
16823;DHT22;8528;49.976;11.858;2023-07-13T00:06:52;18.40;99.90
16823;DHT22;8528;49.976;11.858;2023-07-13T00:09:20;18.40;99.90
16823;DHT22;8528;49.976;11.858;2023-07-13T00:11:54;18.40;99.90
16823;DHT22;8528;49.976;11.858;2023-07-13T00:14:22;18.40;99.90
16823;DHT22;8528;49.976;11.858;2023-07-13T00:16:49;18.50;99.90
16823;DHT22;8528;49.976;11.858;2023-07-13T00:19:16;18.60;99.90
16823;DHT22;8528;49.976;11.858;2023-07-13T00:21:46;18.60;99.90
16823;DHT22;8528;49.976;11.858;2023-07-13T00:24:18;18.70;99.90
16823;DHT22;8528;49.976;11.858;2023-07-13T00:26:50;18.80;99.90
16823;DHT22;8528;49.976;11.858;2023-07-13T00:29:17;18.80;99.90
16823;DHT22;8528;49.976;11.858;2023-07-13T00:31:44;18.80;99.90
16823;DHT22;8528;49.976;11.858;2023-07-13T00:34:12;18.90;99.90
16823;DHT22;8528;49.976;11.858;2023-07-13T00:36:39;19.00;99.90
16823;DHT22;8528;49.976;11.858;2023-07-13T00:39:06;19.00;99.90
16823;DHT22;8528;49.976;11.858;2023-07-13T00:41:33;18.90;99.90
16823;DHT22;8528;49.976;11.858;2023-07-13T00:44:00;18.90;99.90
16823;DHT22;8528;49.976;11.858;2023-07-13T00:46:30;18.80;99.90
16823;DHT22;8528;49.976;11.858;2023-07-13T00:49:00;18.70;99.90
16823;DHT22;8528;49.976;11.858;2023-07-13T00:51:32;18.60;99.90
16823;DHT22;8528;49.976;11.858;2023-07-13T00:54:04;18.50;99.90
16823;DHT22;8528;49.976;11.858;2023-07-13T00:56:33;18.30;99.90
16823;DHT22;8528;49.976;11.858;2023-07-13T00:59:02;18.30;99.90
16823;DHT22;8528;49.976;11.858;2023-07-13T01:01:29;18.30;99.90
16823;DHT22;8528;49.976;11.858;2023-07-13T01:03:56;18.30;99.90
16823;DHT22;8528;49.976;11.858;2023-07-13T01:06:23;18.30;99.90
16823;DHT22;8528;49.976;11.858;2023-07-13T01:08:51;18.30;99.90
16823;DHT22;8528;49.976;11.858;2023-07-13T01:11:21;18.40;99.90
16823;DHT22;8528;49.976;11.858;2023-07-13T01:13:49;18.40;99.90
16823;DHT22;8528;49.976;11.858;2023-07-13T01:16:26;18.30;99.90
16823;DHT22;8528;49.976;11.858;2023-07-13T01:18:54;18.30;99.90
16823;DHT22;8528;49.976;11.858;2023-07-13T01:21:25;18.20;99.90
16823;DHT22;8528;49.976;11.858;2023-07-13T01:23:52;18.10;99.90
16823;DHT22;8528;49.976;11.858;2023-07-13T01:26:19;18.10;99.90
16823;DHT22;8528;49.976;11.858;2023-07-13T01:28:46;18.00;99.90
16823;DHT22;8528;49.976;11.858;2023-07-13T01:31:13;17.90;99.90
16823;DHT22;8528;49.976;11.858;2023-07-13T01:33:40;17.80;99.90
16823;DHT22;8528;49.976;11.858;2023-07-13T01:36:08;17.70;99.90
16823;DHT22;8528;49.976;11.858;2023-07-13T01:38:36;17.60;99.90
16823;DHT22;8528;49.976;11.858;2023-07-13T01:41:03;17.50;99.90
16823;DHT22;8528;49.976;11.858;2023-07-13T01:43:30;17.40;99.90
16823;DHT22;8528;49.976;11.858;2023-07-13T01:45:57;17.40;99.90
16823;DHT22;8528;49.976;11.858;2023-07-13T01:48:43;17.30;99.90
16823;DHT22;8528;49.976;11.858;2023-07-13T01:51:10;17.20;99.90
16823;DHT22;8528;49.976;11.858;2023-07-13T01:53:37;17.20;99.90
16823;DHT22;8528;49.976;11.858;2023-07-13T01:56:04;17.20;99.90
16823;DHT22;8528;49.976;11.858;2023-07-13T01:58:31;17.10;99.90
16823;DHT22;8528;49.976;11.858;2023-07-13T02:00:58;17.10;99.90
16823;DHT22;8528;49.976;11.858;2023-07-13T02:03:25;17.10;99.90
16823;DHT22;8528;49.976;11.858;2023-07-13T02:05:51;17.10;99.90
16823;DHT22;8528;49.976;11.858;2023-07-13T02:08:18;17.00;99.90
16823;DHT22;8528;49.976;11.858;2023-07-13T02:10:45;17.00;99.90
16823;DHT22;8528;49.976;11.858;2023-07-13T02:13:12;16.90;99.90
16823;DHT22;8528;49.976;11.858;2023-07-13T02:15:39;16.80;99.90
16823;DHT22;8528;49.976;11.858;2023-07-13T02:18:09;16.70;99.90
16823;DHT22;8528;49.976;11.858;2023-07-13T02:20:36;16.70;99.90
16823;DHT22;8528;49.976;11.858;2023-07-13T02:23:03;16.60;99.90
16823;DHT22;8528;49.976;11.858;2023-07-13T02:25:32;16.40;99.90
16823;DHT22;8528;49.976;11.858;2023-07-13T02:27:59;16.30;99.90
16823;DHT22;8528;49.976;11.858;2023-07-13T02:30:27;16.20;99.90
16823;DHT22;8528;49.976;11.858;2023-07-13T02:32:57;16.10;99.90
16823;DHT22;8528;49.976;11.858;2023-07-13T02:35:24;16.00;99.90
16823;DHT22;8528;49.976;11.858;2023-07-13T02:37:51;16.00;99.90
16823;DHT22;8528;49.976;11.858;2023-07-13T02:40:18;15.90;99.90
16823;DHT22;8528;49.976;11.858;2023-07-13T02:42:44;15.90;99.90
16823;DHT22;8528;49.976;11.858;2023-07-13T02:45:11;15.90;99.90
16823;DHT22;8528;49.976;11.858;2023-07-13T02:47:41;15.90;99.90
16823;DHT22;8528;49.976;11.858;2023-07-13T02:50:08;15.80;99.90
16823;DHT22;8528;49.976;11.858;2023-07-13T02:52:36;15.80;99.90
16823;DHT22;8528;49.976;11.858;2023-07-13T02:55:04;15.80;99.90
16823;DHT22;8528;49.976;11.858;2023-07-13T02:57:30;15.70;99.90
16823;DHT22;8528;49.976;11.858;2023-07-13T03:00:00;15.70;99.90
16823;DHT22;8528;49.976;11.858;2023-07-13T03:02:27;15.70;99.90
16823;DHT22;8528;49.976;11.858;2023-07-13T03:04:55;15.60;99.90
16823;DHT22;8528;49.976;11.858;2023-07-13T03:07:22;15.60;99.90
16823;DHT22;8528;49.976;11.858;2023-07-13T03:09:54;15.60;99.90
16823;DHT22;8528;49.976;11.858;2023-07-13T03:12:22;15.50;99.90
16823;DHT22;8528;49.976;11.858;2023-07-13T03:14:49;15.40;99.90
16823;DHT22;8528;49.976;11.858;2023-07-13T03:17:16;15.40;99.90
16823;DHT22;8528;49.976;11.858;2023-07-13T03:19:43;15.40;99.90
16823;DHT22;8528;49.976;11.858;2023-07-13T03:22:10;15.40;99.90
16823;DHT22;8528;49.976;11.858;2023-07-13T03:24:37;15.40;99.90
16823;DHT22;8528;49.976;11.858;2023-07-13T03:27:06;15.40;99.90
16823;DHT22;8528;49.976;11.858;2023-07-13T03:29:32;15.30;99.90
16823;DHT22;8528;49.976;11.858;2023-07-13T03:31:59;15.30;99.90
16823;DHT22;8528;49.976;11.858;2023-07-13T03:34:26;15.20;99.90
16823;DHT22;8528;49.976;11.858;2023-07-13T03:36:56;15.10;99.90
16823;DHT22;8528;49.976;11.858;2023-07-13T03:39:23;15.10;99.90
16823;DHT22;8528;49.976;11.858;2023-07-13T03:41:50;15.10;99.90
16823;DHT22;8528;49.976;11.858;2023-07-13T03:44:17;15.00;99.90
16823;DHT22;8528;49.976;11.858;2023-07-13T03:46:44;15.00;99.90
16823;DHT22;8528;49.976;11.858;2023-07-13T03:49:11;15.00;99.90
16823;DHT22;8528;49.976;11.858;2023-07-13T03:51:38;15.00;99.90
16823;DHT22;8528;49.976;11.858;2023-07-13T03:54:05;15.00;99.90
16823;DHT22;8528;49.976;11.858;2023-07-13T03:56:32;15.00;99.90
16823;DHT22;8528;49.976;11.858;2023-07-13T03:59:00;15.00;99.90
16823;DHT22;8528;49.976;11.858;2023-07-13T04:01:28;15.00;99.90
16823;DHT22;8528;49.976;11.858;2023-07-13T04:03:55;15.00;99.90
16823;DHT22;8528;49.976;11.858;2023-07-13T04:06:25;15.00;99.90
16823;DHT22;8528;49.976;11.858;2023-07-13T04:08:55;15.00;99.90
16823;DHT22;8528;49.976;11.858;2023-07-13T04:11:26;15.00;99.90
16823;DHT22;8528;49.976;11.858;2023-07-13T04:13:54;15.00;99.90
16823;DHT22;8528;49.976;11.858;2023-07-13T04:16:21;15.20;99.90
16823;DHT22;8528;49.976;11.858;2023-07-13T04:18:49;15.30;99.90
16823;DHT22;8528;49.976;11.858;2023-07-13T04:21:16;15.50;99.90
16823;DHT22;8528;49.976;11.858;2023-07-13T04:23:43;15.70;99.90
16823;DHT22;8528;49.976;11.858;2023-07-13T04:26:10;16.10;99.90
16823;DHT22;8528;49.976;11.858;2023-07-13T04:28:38;16.50;99.90
16823;DHT22;8528;49.976;11.858;2023-07-13T04:31:05;16.90;99.90
16823;DHT22;8528;49.976;11.858;2023-07-13T04:33:32;17.20;99.90
16823;DHT22;8528;49.976;11.858;2023-07-13T04:35:59;17.50;99.90
16823;DHT22;8528;49.976;11.858;2023-07-13T04:38:28;17.70;99.90
16823;DHT22;8528;49.976;11.858;2023-07-13T04:40:57;17.80;99.90
16823;DHT22;8528;49.976;11.858;2023-07-13T04:43:25;17.80;99.90
16823;DHT22;8528;49.976;11.858;2023-07-13T04:45:53;17.90;99.90
16823;DHT22;8528;49.976;11.858;2023-07-13T04:48:21;18.10;99.90
16823;DHT22;8528;49.976;11.858;2023-07-13T04:50:55;18.40;99.90
16823;DHT22;8528;49.976;11.858;2023-07-13T04:53:22;18.60;99.90
16823;DHT22;8528;49.976;11.858;2023-07-13T04:55:50;18.90;99.90
16823;DHT22;8528;49.976;11.858;2023-07-13T04:58:17;19.30;99.90
16823;DHT22;8528;49.976;11.858;2023-07-13T05:00:44;19.70;99.90
16823;DHT22;8528;49.976;11.858;2023-07-13T05:03:11;20.00;99.90
16823;DHT22;8528;49.976;11.858;2023-07-13T05:05:38;20.40;99.90
16823;DHT22;8528;49.976;11.858;2023-07-13T05:08:05;20.80;99.90
16823;DHT22;8528;49.976;11.858;2023-07-13T05:10:34;21.20;99.90
16823;DHT22;8528;49.976;11.858;2023-07-13T05:13:01;21.60;99.90
16823;DHT22;8528;49.976;11.858;2023-07-13T05:15:29;21.90;99.90
16823;DHT22;8528;49.976;11.858;2023-07-13T05:17:56;22.00;99.90
16823;DHT22;8528;49.976;11.858;2023-07-13T05:20:23;22.10;99.90
16823;DHT22;8528;49.976;11.858;2023-07-13T05:22:50;22.40;99.90
16823;DHT22;8528;49.976;11.858;2023-07-13T05:25:17;22.70;99.90
16823;DHT22;8528;49.976;11.858;2023-07-13T05:27:44;23.00;99.90
16823;DHT22;8528;49.976;11.858;2023-07-13T05:30:13;23.30;99.90
16823;DHT22;8528;49.976;11.858;2023-07-13T05:32:41;24.00;99.90
16823;DHT22;8528;49.976;11.858;2023-07-13T05:35:08;24.90;99.90
16823;DHT22;8528;49.976;11.858;2023-07-13T05:37:37;25.90;96.60
16823;DHT22;8528;49.976;11.858;2023-07-13T05:40:04;26.80;92.60
16823;DHT22;8528;49.976;11.858;2023-07-13T05:42:31;27.20;91.90
16823;DHT22;8528;49.976;11.858;2023-07-13T05:44:59;27.70;86.80
16823;DHT22;8528;49.976;11.858;2023-07-13T05:47:25;28.50;79.20
16823;DHT22;8528;49.976;11.858;2023-07-13T05:49:53;29.30;73.00
16823;DHT22;8528;49.976;11.858;2023-07-13T05:52:21;29.50;68.20
16823;DHT22;8528;49.976;11.858;2023-07-13T05:54:47;29.80;65.90
16823;DHT22;8528;49.976;11.858;2023-07-13T05:57:14;30.20;63.20
16823;DHT22;8528;49.976;11.858;2023-07-13T05:59:42;30.60;60.40
16823;DHT22;8528;49.976;11.858;2023-07-13T06:02:10;30.70;60.50
16823;DHT22;8528;49.976;11.858;2023-07-13T06:04:37;30.90;58.60
16823;DHT22;8528;49.976;11.858;2023-07-13T06:07:05;31.10;57.60
16823;DHT22;8528;49.976;11.858;2023-07-13T06:09:32;31.80;56.60
16823;DHT22;8528;49.976;11.858;2023-07-13T06:11:59;32.40;53.60
16823;DHT22;8528;49.976;11.858;2023-07-13T06:14:26;32.20;53.40
16823;DHT22;8528;49.976;11.858;2023-07-13T06:16:54;32.10;53.90
16823;DHT22;8528;49.976;11.858;2023-07-13T06:19:22;32.20;51.30
16823;DHT22;8528;49.976;11.858;2023-07-13T06:21:48;32.80;50.50
16823;DHT22;8528;49.976;11.858;2023-07-13T06:24:15;33.10;50.10
16823;DHT22;8528;49.976;11.858;2023-07-13T06:26:42;33.40;48.10
16823;DHT22;8528;49.976;11.858;2023-07-13T06:29:10;33.50;46.30
16823;DHT22;8528;49.976;11.858;2023-07-13T06:31:37;32.60;47.40
16823;DHT22;8528;49.976;11.858;2023-07-13T06:34:05;31.60;48.80
16823;DHT22;8528;49.976;11.858;2023-07-13T06:36:31;31.00;49.40
16823;DHT22;8528;49.976;11.858;2023-07-13T06:38:58;30.40;50.90
16823;DHT22;8528;49.976;11.858;2023-07-13T06:41:25;29.60;51.30
16823;DHT22;8528;49.976;11.858;2023-07-13T06:43:52;29.00;53.70
16823;DHT22;8528;49.976;11.858;2023-07-13T06:46:21;28.90;54.20
16823;DHT22;8528;49.976;11.858;2023-07-13T06:48:49;29.00;53.70
16823;DHT22;8528;49.976;11.858;2023-07-13T06:51:16;29.70;53.00
16823;DHT22;8528;49.976;11.858;2023-07-13T06:53:43;30.10;52.20
16823;DHT22;8528;49.976;11.858;2023-07-13T06:56:10;30.80;51.70
16823;DHT22;8528;49.976;11.858;2023-07-13T06:58:37;31.20;52.00
16823;DHT22;8528;49.976;11.858;2023-07-13T07:01:05;31.00;51.40
16823;DHT22;8528;49.976;11.858;2023-07-13T07:03:49;30.70;52.60
16823;DHT22;8528;49.976;11.858;2023-07-13T07:06:45;30.10;53.70
16823;DHT22;8528;49.976;11.858;2023-07-13T07:09:12;29.90;54.70
16823;DHT22;8528;49.976;11.858;2023-07-13T07:11:40;29.80;54.90
16823;DHT22;8528;49.976;11.858;2023-07-13T07:14:27;30.10;54.50
16823;DHT22;8528;49.976;11.858;2023-07-13T07:16:54;30.90;52.30
16823;DHT22;8528;49.976;11.858;2023-07-13T07:19:21;31.50;52.30
16823;DHT22;8528;49.976;11.858;2023-07-13T07:21:47;33.20;48.90
16823;DHT22;8528;49.976;11.858;2023-07-13T07:24:14;34.30;47.70
16823;DHT22;8528;49.976;11.858;2023-07-13T07:26:42;35.00;44.70
16823;DHT22;8528;49.976;11.858;2023-07-13T07:29:11;35.90;43.60
16823;DHT22;8528;49.976;11.858;2023-07-13T07:31:41;36.00;43.90
16823;DHT22;8528;49.976;11.858;2023-07-13T07:34:11;36.10;42.20
16823;DHT22;8528;49.976;11.858;2023-07-13T07:36:38;34.70;43.30
16823;DHT22;8528;49.976;11.858;2023-07-13T07:39:08;33.00;45.00
16823;DHT22;8528;49.976;11.858;2023-07-13T07:41:34;31.60;47.30
16823;DHT22;8528;49.976;11.858;2023-07-13T07:44:04;30.40;50.10
16823;DHT22;8528;49.976;11.858;2023-07-13T07:46:33;29.60;49.50
16823;DHT22;8528;49.976;11.858;2023-07-13T07:49:01;29.10;51.50
16823;DHT22;8528;49.976;11.858;2023-07-13T07:51:28;29.20;50.90
16823;DHT22;8528;49.976;11.858;2023-07-13T07:53:55;29.50;50.60
16823;DHT22;8528;49.976;11.858;2023-07-13T07:56:22;29.60;49.50
16823;DHT22;8528;49.976;11.858;2023-07-13T07:58:52;29.50;50.50
16823;DHT22;8528;49.976;11.858;2023-07-13T08:01:22;29.20;50.90
16823;DHT22;8528;49.976;11.858;2023-07-13T08:03:52;29.50;51.60
16823;DHT22;8528;49.976;11.858;2023-07-13T08:06:24;30.10;50.80
16823;DHT22;8528;49.976;11.858;2023-07-13T08:08:54;30.70;50.30
16823;DHT22;8528;49.976;11.858;2023-07-13T08:11:21;31.60;48.40
16823;DHT22;8528;49.976;11.858;2023-07-13T08:13:52;31.90;48.50
16823;DHT22;8528;49.976;11.858;2023-07-13T08:16:22;31.40;47.50
16823;DHT22;8528;49.976;11.858;2023-07-13T08:18:49;31.70;47.70
16823;DHT22;8528;49.976;11.858;2023-07-13T08:21:44;32.80;45.10
16823;DHT22;8528;49.976;11.858;2023-07-13T08:24:11;33.60;43.60
16823;DHT22;8528;49.976;11.858;2023-07-13T08:26:38;33.90;42.10
16823;DHT22;8528;49.976;11.858;2023-07-13T08:29:05;34.20;41.40
16823;DHT22;8528;49.976;11.858;2023-07-13T08:31:32;34.80;41.90
16823;DHT22;8528;49.976;11.858;2023-07-13T08:33:59;35.30;41.90
16823;DHT22;8528;49.976;11.858;2023-07-13T08:36:26;34.60;41.00
16823;DHT22;8528;49.976;11.858;2023-07-13T08:38:54;34.20;40.10
16823;DHT22;8528;49.976;11.858;2023-07-13T08:41:22;33.40;42.50
16823;DHT22;8528;49.976;11.858;2023-07-13T08:43:52;33.20;42.70
16823;DHT22;8528;49.976;11.858;2023-07-13T08:46:26;33.80;43.10
16823;DHT22;8528;49.976;11.858;2023-07-13T08:49:02;34.00;41.20
16823;DHT22;8528;49.976;11.858;2023-07-13T08:51:49;34.00;40.80
16823;DHT22;8528;49.976;11.858;2023-07-13T08:54:21;33.40;41.20
16823;DHT22;8528;49.976;11.858;2023-07-13T08:56:50;33.00;41.90
16823;DHT22;8528;49.976;11.858;2023-07-13T08:59:24;33.50;40.80
16823;DHT22;8528;49.976;11.858;2023-07-13T09:02:07;33.20;42.20
16823;DHT22;8528;49.976;11.858;2023-07-13T09:04:45;33.10;42.30
16823;DHT22;8528;49.976;11.858;2023-07-13T09:15:31;33.00;42.10
16823;DHT22;8528;49.976;11.858;2023-07-13T09:18:37;32.30;43.30
16823;DHT22;8528;49.976;11.858;2023-07-13T09:21:27;32.80;42.80
16823;DHT22;8528;49.976;11.858;2023-07-13T09:24:00;33.50;42.10
16823;DHT22;8528;49.976;11.858;2023-07-13T09:26:30;33.70;41.60
16823;DHT22;8528;49.976;11.858;2023-07-13T09:29:10;34.10;40.50
16823;DHT22;8528;49.976;11.858;2023-07-13T09:31:43;32.90;43.30
16823;DHT22;8528;49.976;11.858;2023-07-13T09:34:13;32.70;43.10
16823;DHT22;8528;49.976;11.858;2023-07-13T09:36:43;33.50;41.40
16823;DHT22;8528;49.976;11.858;2023-07-13T09:39:16;35.00;40.30
16823;DHT22;8528;49.976;11.858;2023-07-13T09:44:31;34.70;39.20
16823;DHT22;8528;49.976;11.858;2023-07-13T09:47:01;34.40;39.20
16823;DHT22;8528;49.976;11.858;2023-07-13T09:53:18;34.60;39.50
16823;DHT22;8528;49.976;11.858;2023-07-13T09:55:47;36.40;37.90
16823;DHT22;8528;49.976;11.858;2023-07-13T09:58:24;37.40;36.40
16823;DHT22;8528;49.976;11.858;2023-07-13T10:01:05;36.90;36.80
16823;DHT22;8528;49.976;11.858;2023-07-13T10:03:36;36.60;36.80
16823;DHT22;8528;49.976;11.858;2023-07-13T10:06:19;37.10;35.60
16823;DHT22;8528;49.976;11.858;2023-07-13T10:08:50;37.90;34.50
16823;DHT22;8528;49.976;11.858;2023-07-13T10:11:29;37.30;34.20
16823;DHT22;8528;49.976;11.858;2023-07-13T10:14:00;36.20;35.40
16823;DHT22;8528;49.976;11.858;2023-07-13T10:16:31;34.90;36.60
16823;DHT22;8528;49.976;11.858;2023-07-13T10:19:05;33.40;37.90
16823;DHT22;8528;49.976;11.858;2023-07-13T10:21:54;32.10;39.90
16823;DHT22;8528;49.976;11.858;2023-07-13T10:24:32;32.40;39.20
16823;DHT22;8528;49.976;11.858;2023-07-13T10:27:34;33.20;36.30
16823;DHT22;8528;49.976;11.858;2023-07-13T10:33:03;33.90;37.20
16823;DHT22;8528;49.976;11.858;2023-07-13T10:35:31;32.40;38.60
16823;DHT22;8528;49.976;11.858;2023-07-13T10:38:03;32.30;39.70
16823;DHT22;8528;49.976;11.858;2023-07-13T10:40:54;33.40;36.40
16823;DHT22;8528;49.976;11.858;2023-07-13T10:46:43;36.30;33.00
16823;DHT22;8528;49.976;11.858;2023-07-13T10:49:11;36.80;32.70
16823;DHT22;8528;49.976;11.858;2023-07-13T10:51:39;37.90;31.10
16823;DHT22;8528;49.976;11.858;2023-07-13T10:54:11;39.10;30.10
16823;DHT22;8528;49.976;11.858;2023-07-13T10:56:46;39.40;29.60
16823;DHT22;8528;49.976;11.858;2023-07-13T10:59:33;39.50;30.80
16823;DHT22;8528;49.976;11.858;2023-07-13T11:04:42;39.50;29.60
16823;DHT22;8528;49.976;11.858;2023-07-13T11:07:22;40.60;29.40
16823;DHT22;8528;49.976;11.858;2023-07-13T11:09:57;40.80;29.40
16823;DHT22;8528;49.976;11.858;2023-07-13T11:12:54;40.80;27.80
16823;DHT22;8528;49.976;11.858;2023-07-13T11:15:32;39.40;28.80
16823;DHT22;8528;49.976;11.858;2023-07-13T11:18:04;39.80;28.80
16823;DHT22;8528;49.976;11.858;2023-07-13T11:20:40;40.40;29.60
16823;DHT22;8528;49.976;11.858;2023-07-13T11:25:40;39.90;29.30
16823;DHT22;8528;49.976;11.858;2023-07-13T11:33:22;40.60;28.10
16823;DHT22;8528;49.976;11.858;2023-07-13T11:36:06;40.50;28.00
16823;DHT22;8528;49.976;11.858;2023-07-13T11:38:40;40.40;28.90
16823;DHT22;8528;49.976;11.858;2023-07-13T11:41:23;40.70;27.90
16823;DHT22;8528;49.976;11.858;2023-07-13T11:44:02;40.30;28.10
16823;DHT22;8528;49.976;11.858;2023-07-13T11:46:31;39.80;29.00
16823;DHT22;8528;49.976;11.858;2023-07-13T11:48:59;38.90;28.20
16823;DHT22;8528;49.976;11.858;2023-07-13T11:51:32;38.20;28.20
16823;DHT22;8528;49.976;11.858;2023-07-13T11:54:04;38.20;29.20
16823;DHT22;8528;49.976;11.858;2023-07-13T11:56:31;38.10;28.20
16823;DHT22;8528;49.976;11.858;2023-07-13T11:59:06;38.00;28.00
16823;DHT22;8528;49.976;11.858;2023-07-13T12:01:34;36.60;29.60
16823;DHT22;8528;49.976;11.858;2023-07-13T12:04:03;36.40;29.80
16823;DHT22;8528;49.976;11.858;2023-07-13T12:06:36;36.90;29.60
16823;DHT22;8528;49.976;11.858;2023-07-13T12:09:12;36.50;29.30
16823;DHT22;8528;49.976;11.858;2023-07-13T12:11:43;36.20;30.50
16823;DHT22;8528;49.976;11.858;2023-07-13T12:14:17;36.10;29.10
16823;DHT22;8528;49.976;11.858;2023-07-13T12:16:48;36.00;30.00
16823;DHT22;8528;49.976;11.858;2023-07-13T12:22:23;35.40;30.10
16823;DHT22;8528;49.976;11.858;2023-07-13T12:24:51;34.50;30.60
16823;DHT22;8528;49.976;11.858;2023-07-13T12:27:20;33.50;31.20
16823;DHT22;8528;49.976;11.858;2023-07-13T12:30:04;33.10;33.40
16823;DHT22;8528;49.976;11.858;2023-07-13T12:32:32;34.20;32.10
16823;DHT22;8528;49.976;11.858;2023-07-13T12:35:14;34.90;30.40
16823;DHT22;8528;49.976;11.858;2023-07-13T12:37:43;34.60;30.70
16823;DHT22;8528;49.976;11.858;2023-07-13T12:40:17;33.70;33.00
16823;DHT22;8528;49.976;11.858;2023-07-13T12:42:50;32.30;33.70
16823;DHT22;8528;49.976;11.858;2023-07-13T12:45:22;32.30;33.60
16823;DHT22;8528;49.976;11.858;2023-07-13T12:47:54;31.90;35.20
16823;DHT22;8528;49.976;11.858;2023-07-13T12:50:23;32.20;34.80
16823;DHT22;8528;49.976;11.858;2023-07-13T12:52:59;31.90;34.90
16823;DHT22;8528;49.976;11.858;2023-07-13T12:55:27;31.70;34.70
16823;DHT22;8528;49.976;11.858;2023-07-13T12:57:59;32.00;34.50
16823;DHT22;8528;49.976;11.858;2023-07-13T13:00:32;31.50;35.00
16823;DHT22;8528;49.976;11.858;2023-07-13T13:06:04;32.00;34.80
16823;DHT22;8528;49.976;11.858;2023-07-13T13:08:33;33.10;32.70
16823;DHT22;8528;49.976;11.858;2023-07-13T13:11:01;32.20;33.50
16823;DHT22;8528;49.976;11.858;2023-07-13T13:13:28;31.20;35.60
16823;DHT22;8528;49.976;11.858;2023-07-13T13:15:55;30.70;35.60
16823;DHT22;8528;49.976;11.858;2023-07-13T13:18:23;30.10;36.00
16823;DHT22;8528;49.976;11.858;2023-07-13T13:20:51;29.70;37.90
16823;DHT22;8528;49.976;11.858;2023-07-13T13:23:19;29.30;37.80
16823;DHT22;8528;49.976;11.858;2023-07-13T13:25:49;29.30;38.00
16823;DHT22;8528;49.976;11.858;2023-07-13T13:28:18;28.70;38.10
16823;DHT22;8528;49.976;11.858;2023-07-13T13:30:47;28.30;39.70
16823;DHT22;8528;49.976;11.858;2023-07-13T13:33:17;27.90;40.20
16823;DHT22;8528;49.976;11.858;2023-07-13T13:35:44;27.70;40.50
16823;DHT22;8528;49.976;11.858;2023-07-13T13:38:16;27.50;40.00
16823;DHT22;8528;49.976;11.858;2023-07-13T13:40:45;27.60;40.80
16823;DHT22;8528;49.976;11.858;2023-07-13T13:43:26;27.50;40.50
16823;DHT22;8528;49.976;11.858;2023-07-13T13:45:55;27.60;40.50
16823;DHT22;8528;49.976;11.858;2023-07-13T13:48:31;27.40;41.20
16823;DHT22;8528;49.976;11.858;2023-07-13T13:50:59;27.30;41.50
16823;DHT22;8528;49.976;11.858;2023-07-13T13:53:27;27.60;40.40
16823;DHT22;8528;49.976;11.858;2023-07-13T13:55:54;28.00;41.50
16823;DHT22;8528;49.976;11.858;2023-07-13T13:58:21;28.20;40.80
16823;DHT22;8528;49.976;11.858;2023-07-13T14:00:49;28.40;41.10
16823;DHT22;8528;49.976;11.858;2023-07-13T14:03:21;28.20;40.30
16823;DHT22;8528;49.976;11.858;2023-07-13T14:05:49;28.10;41.00
16823;DHT22;8528;49.976;11.858;2023-07-13T14:08:20;28.00;41.50
16823;DHT22;8528;49.976;11.858;2023-07-13T14:10:50;27.90;40.20
16823;DHT22;8528;49.976;11.858;2023-07-13T14:13:25;27.60;40.50
16823;DHT22;8528;49.976;11.858;2023-07-13T14:15:54;27.20;42.50
16823;DHT22;8528;49.976;11.858;2023-07-13T14:18:21;27.00;42.00
16823;DHT22;8528;49.976;11.858;2023-07-13T14:20:48;27.00;43.30
16823;DHT22;8528;49.976;11.858;2023-07-13T14:23:16;27.20;42.50
16823;DHT22;8528;49.976;11.858;2023-07-13T14:25:47;27.30;42.80
16823;DHT22;8528;49.976;11.858;2023-07-13T14:28:25;27.20;42.70
16823;DHT22;8528;49.976;11.858;2023-07-13T14:30:53;27.20;42.50
16823;DHT22;8528;49.976;11.858;2023-07-13T14:33:23;27.20;41.20
16823;DHT22;8528;49.976;11.858;2023-07-13T14:35:50;27.00;43.10
16823;DHT22;8528;49.976;11.858;2023-07-13T14:38:20;27.00;43.70
16823;DHT22;8528;49.976;11.858;2023-07-13T14:40:47;27.00;42.10
16823;DHT22;8528;49.976;11.858;2023-07-13T14:43:15;27.00;42.80
16823;DHT22;8528;49.976;11.858;2023-07-13T14:45:47;26.90;42.90
16823;DHT22;8528;49.976;11.858;2023-07-13T14:48:21;26.80;43.90
16823;DHT22;8528;49.976;11.858;2023-07-13T14:50:56;26.60;43.20
16823;DHT22;8528;49.976;11.858;2023-07-13T14:53:26;26.60;43.30
16823;DHT22;8528;49.976;11.858;2023-07-13T14:55:54;26.40;43.30
16823;DHT22;8528;49.976;11.858;2023-07-13T14:58:21;26.20;46.50
16823;DHT22;8528;49.976;11.858;2023-07-13T15:00:48;26.00;44.60
16823;DHT22;8528;49.976;11.858;2023-07-13T15:03:19;25.90;44.80
16823;DHT22;8528;49.976;11.858;2023-07-13T15:05:51;25.90;45.10
16823;DHT22;8528;49.976;11.858;2023-07-13T15:08:19;25.80;44.90
16823;DHT22;8528;49.976;11.858;2023-07-13T15:10:46;25.70;45.20
16823;DHT22;8528;49.976;11.858;2023-07-13T15:13:15;25.30;45.50
16823;DHT22;8528;49.976;11.858;2023-07-13T15:15:48;25.40;45.70
16823;DHT22;8528;49.976;11.858;2023-07-13T15:18:17;25.50;46.40
16823;DHT22;8528;49.976;11.858;2023-07-13T15:20:46;25.60;46.80
16823;DHT22;8528;49.976;11.858;2023-07-13T15:23:15;25.50;46.00
16823;DHT22;8528;49.976;11.858;2023-07-13T15:25:43;25.40;46.10
16823;DHT22;8528;49.976;11.858;2023-07-13T15:28:10;25.20;46.60
16823;DHT22;8528;49.976;11.858;2023-07-13T15:30:43;24.90;46.90
16823;DHT22;8528;49.976;11.858;2023-07-13T15:33:30;24.70;46.60
16823;DHT22;8528;49.976;11.858;2023-07-13T15:35:57;24.50;48.80
16823;DHT22;8528;49.976;11.858;2023-07-13T15:38:28;24.40;48.40
16823;DHT22;8528;49.976;11.858;2023-07-13T15:40:56;24.30;48.40
16823;DHT22;8528;49.976;11.858;2023-07-13T15:43:23;24.20;48.60
16823;DHT22;8528;49.976;11.858;2023-07-13T15:45:55;24.00;49.30
16823;DHT22;8528;49.976;11.858;2023-07-13T15:48:23;23.90;49.50
16823;DHT22;8528;49.976;11.858;2023-07-13T15:50:52;24.00;49.80
16823;DHT22;8528;49.976;11.858;2023-07-13T15:53:34;24.00;49.50
16823;DHT22;8528;49.976;11.858;2023-07-13T15:56:18;24.10;50.70
16823;DHT22;8528;49.976;11.858;2023-07-13T15:58:45;24.20;48.70
16823;DHT22;8528;49.976;11.858;2023-07-13T16:01:13;24.20;49.60
16823;DHT22;8528;49.976;11.858;2023-07-13T16:03:41;24.30;49.50
16823;DHT22;8528;49.976;11.858;2023-07-13T16:06:23;24.30;50.60
16823;DHT22;8528;49.976;11.858;2023-07-13T16:08:52;24.30;50.60
16823;DHT22;8528;49.976;11.858;2023-07-13T16:11:22;24.30;50.30
16823;DHT22;8528;49.976;11.858;2023-07-13T16:13:50;24.10;49.10
16823;DHT22;8528;49.976;11.858;2023-07-13T16:16:23;24.00;49.80
16823;DHT22;8528;49.976;11.858;2023-07-13T16:18:56;24.00;50.20
16823;DHT22;8528;49.976;11.858;2023-07-13T16:21:26;24.00;49.70
16823;DHT22;8528;49.976;11.858;2023-07-13T16:23:53;24.00;49.40
16823;DHT22;8528;49.976;11.858;2023-07-13T16:26:35;23.90;50.50